createdAt,value
2019-05-13T00:09:07.907Z,839.05
2019-05-13T00:19:18.174Z,714.37
2019-05-13T00:24:24.136Z,815.73
2019-05-13T00:39:38.581Z,688.37
2019-05-13T00:44:44.277Z,629.58
2019-05-13T00:59:57.183Z,277.02
2019-05-13T01:05:01.216Z,189.77
2019-05-13T01:10:07.451Z,112.35
2019-05-13T01:15:30.837Z,65.40
2019-05-13T01:20:35.666Z,49.20
2019-05-13T01:30:44.940Z,22.20
2019-05-13T01:35:48.993Z,19.70
2019-05-13T01:40:54.145Z,19.80
2019-05-13T01:45:58.242Z,17.75
2019-05-13T02:01:13.668Z,15.90
2019-05-13T02:26:38.380Z,12.70
2019-05-13T02:31:50.951Z,12.80
2019-05-13T02:36:52.505Z,12.45
2019-05-13T02:41:55.046Z,12.10
2019-05-13T02:57:07.308Z,10.55
2019-05-13T03:02:12.361Z,10.63
2019-05-13T03:12:22.992Z,9.43
2019-05-13T03:17:34.960Z,10.08
2019-05-13T03:32:55.116Z,9.80
2019-05-13T03:48:04.202Z,8.20
2019-05-13T03:58:13.082Z,7.75
2019-05-13T04:13:26.324Z,7.63
2019-05-13T04:18:31.993Z,7.35
2019-05-13T04:28:43.080Z,6.55
2019-05-13T04:33:44.975Z,6.40
2019-05-13T04:38:48.835Z,6.90
2019-05-13T04:48:58.109Z,6.08
2019-05-13T04:54:03.006Z,6.40
2019-05-13T04:59:06.948Z,6.20
2019-05-13T05:04:22.591Z,6.03
2019-05-13T05:19:26.175Z,5.90
2019-05-13T05:24:31.745Z,6.10
2019-05-13T05:29:35.434Z,5.45
2019-05-13T05:39:44.916Z,5.97
2019-05-13T05:44:48.650Z,4.95
2019-05-13T05:49:52.350Z,5.25
2019-05-13T05:54:56.056Z,5.30
2019-05-13T06:00:02.215Z,5.20
2019-05-13T06:05:05.221Z,5.20
2019-05-13T06:10:10.845Z,4.90
2019-05-13T06:15:14.214Z,4.90
2019-05-13T06:20:18.368Z,4.70
2019-05-13T06:25:23.338Z,4.60
2019-05-13T06:30:27.545Z,5.00
2019-05-13T06:35:32.299Z,5.00
2019-05-13T06:40:36.282Z,4.60
2019-05-13T06:45:42.083Z,4.70
2019-05-13T06:50:45.473Z,4.90
2019-05-13T06:55:49.215Z,4.15
2019-05-13T07:00:57.356Z,4.40
2019-05-13T07:05:58.362Z,4.00
2019-05-13T07:11:17.093Z,3.90
2019-05-13T07:16:22.580Z,5.00
2019-05-13T07:21:26.189Z,64.90
2019-05-13T07:26:31.462Z,290.15
2019-05-13T07:31:35.377Z,531.10
2019-05-13T07:36:39.094Z,717.55
2019-05-13T07:41:43.348Z,711.80
2019-05-13T07:46:47.147Z,554.95
2019-05-13T07:51:52.100Z,398.55
2019-05-13T07:56:56.011Z,277.60
2019-05-13T08:02:02.062Z,175.65
2019-05-13T08:07:05.113Z,102.80
2019-05-13T08:12:11.032Z,49.70
2019-05-13T08:17:14.270Z,33.60
2019-05-13T08:22:17.978Z,22.60
2019-05-13T08:27:30.411Z,8.00
2019-05-13T08:32:27.360Z,6.80
2019-05-13T08:37:32.115Z,6.70
2019-05-13T08:42:36.333Z,6.10
2019-05-13T08:47:41.940Z,5.45
2019-05-13T08:52:45.468Z,5.70
2019-05-13T08:57:51.473Z,5.75
2019-05-13T09:02:54.492Z,5.00
2019-05-13T13:18:58.751Z,4.33
2019-05-13T13:24:05.362Z,4.80
2019-05-13T13:29:09.039Z,4.50
2019-05-13T13:34:17.943Z,3.90
2019-05-13T13:39:18.024Z,4.35
2019-05-13T13:44:24.623Z,3.80
2019-05-13T13:49:26.998Z,3.40
2019-05-13T13:54:33.658Z,4.20
2019-05-13T13:59:36.319Z,5.00
2019-05-13T14:04:42.955Z,50.40
2019-05-13T14:09:45.671Z,102.80
2019-05-13T14:14:51.925Z,199.05
2019-05-13T14:19:54.750Z,217.45
2019-05-13T14:24:58.360Z,194.00
2019-05-13T14:30:02.081Z,187.70
2019-05-13T14:35:08.650Z,153.10
2019-05-13T14:40:12.156Z,196.30
2019-05-13T14:45:16.016Z,167.25
2019-05-13T14:50:21.376Z,254.30
2019-05-13T14:55:25.372Z,314.80
2019-05-13T15:00:29.010Z,251.30
2019-05-13T15:05:32.591Z,254.70
2019-05-13T15:10:36.374Z,209.10
2019-05-13T15:15:42.188Z,176.50
2019-05-13T15:30:55.870Z,43.35
2019-05-13T15:36:01.863Z,41.85
2019-05-13T15:41:04.985Z,309.10
2019-05-13T15:46:08.695Z,262.90
2019-05-13T15:51:12.321Z,306.30
2019-05-13T15:56:16.811Z,190.00
2019-05-13T16:01:22.989Z,230.20
2019-05-13T16:06:25.821Z,182.95
2019-05-13T16:11:29.552Z,202.20
2019-05-13T16:16:33.771Z,189.30
2019-05-13T16:21:37.380Z,132.20
2019-05-13T16:26:42.713Z,114.40
2019-05-13T16:31:46.468Z,116.20
2019-05-13T16:36:52.815Z,182.90
2019-05-13T16:41:55.539Z,203.10
2019-05-13T16:47:01.397Z,256.40
2019-05-13T16:52:05.957Z,195.50
2019-05-13T16:57:09.662Z,254.50
2019-05-13T17:02:13.289Z,324.45
2019-05-13T17:07:16.830Z,339.70
2019-05-13T17:12:21.263Z,436.30
2019-05-13T17:17:25.257Z,373.10
2019-05-13T17:22:31.455Z,457.60
2019-05-13T17:27:34.442Z,303.00
2019-05-13T17:32:38.146Z,326.30
2019-05-13T17:37:42.285Z,299.70
2019-05-13T17:42:46.002Z,330.10
2019-05-13T17:47:51.868Z,400.10
2019-05-13T17:52:55.524Z,341.20
2019-05-13T17:58:01.439Z,312.00
2019-05-13T18:03:04.668Z,344.30
2019-05-13T18:08:11.253Z,315.50
2019-05-13T18:13:15.242Z,273.45
2019-05-13T18:18:21.410Z,208.40
2019-05-13T18:23:24.439Z,350.40
2019-05-13T18:28:31.294Z,241.00
2019-05-13T18:33:33.522Z,162.50
2019-05-13T18:38:37.241Z,174.10
2019-05-13T18:43:41.336Z,158.50
2019-05-13T18:48:58.182Z,248.20
2019-05-13T18:53:51.959Z,182.80
2019-05-13T18:58:55.786Z,142.85
2019-05-13T19:03:59.404Z,210.90
2019-05-13T19:09:05.727Z,325.70
2019-05-13T19:14:12.082Z,258.30
2019-05-13T19:19:35.338Z,184.30
2019-05-13T19:24:41.558Z,350.80
2019-05-13T19:29:46.912Z,462.65
2019-05-13T19:39:55.748Z,468.43
2019-05-13T19:45:01.903Z,499.05
2019-05-13T19:50:06.018Z,423.65
2019-05-13T19:55:12.052Z,407.25
2019-05-13T20:10:26.455Z,531.23
2019-05-13T20:15:31.481Z,417.40
2019-05-13T20:20:35.793Z,368.30
2019-05-13T20:35:50.708Z,297.15
2019-05-13T20:40:55.351Z,474.83
2019-05-13T20:46:01.704Z,473.37
2019-05-13T20:51:11.382Z,466.40
2019-05-13T20:56:16.612Z,445.30
2019-05-13T21:16:37.224Z,389.70
2019-05-13T21:36:54.236Z,176.30
2019-05-13T21:47:02.219Z,94.40
2019-05-13T21:52:06.838Z,58.42
2019-05-13T22:02:16.410Z,20.70
2019-05-13T22:12:27.544Z,10.47
2019-05-13T22:17:31.716Z,10.00
2019-05-13T22:27:41.310Z,570.73
2019-05-13T22:32:45.795Z,688.12
2019-05-13T22:37:51.169Z,652.23
2019-05-13T22:42:57.186Z,530.07
2019-05-13T22:53:07.002Z,328.33
2019-05-13T23:03:16.345Z,117.90
2019-05-13T23:08:21.735Z,100.50
2019-05-13T23:13:26.748Z,26.50
2019-05-13T23:23:37.543Z,10.70
2019-05-13T23:28:41.744Z,8.50
2019-05-13T23:54:05.125Z,7.03
2019-05-13T23:59:11.202Z,8.00
